Wilkinson, Indiana
Current Conditions -  °F | °C
As of 10:55 AM on Thursday 23 Oct 2014 (Local Time) from KMQJ Reporting Station
Clear Clear  
Wind Chill: 10°   Ceiling: Unl
Heat Index: 10°   Visibility: 10mi
Dew Point:   Wind: 6mph
Humidity: 62%   Direction: 220°SW
Pressure: 30.25"   Gusts: NA
Location:  39.89°N, 85.61°W
Report Text: KMQJ 231455Z AUTO 22005KT 10SM CLR 10/03 A3025 RMK AO1
Loading
Personal Weather Stations






























Interactive Weather Map
Tropical Storm Tracking
New forecast layout! Learn more

10-Day Weather Forecast

Advertisements
Track Severe Weather on mobile